sensor_id;sensor_type;location;lat;lon;timestamp;P1;durP1;ratioP1;P2;durP2;ratioP2
65418;SDS011;52027;50.658;14.004;2022-08-07T00:01:38;2.88;;;1.40;;
65418;SDS011;52027;50.658;14.004;2022-08-07T00:04:04;2.83;;;1.42;;
65418;SDS011;52027;50.658;14.004;2022-08-07T00:06:30;1.85;;;1.20;;
65418;SDS011;52027;50.658;14.004;2022-08-07T00:08:56;3.03;;;1.30;;
65418;SDS011;52027;50.658;14.004;2022-08-07T00:11:21;1.90;;;1.23;;
65418;SDS011;52027;50.658;14.004;2022-08-07T00:13:46;3.17;;;1.20;;
65418;SDS011;52027;50.658;14.004;2022-08-07T00:16:12;2.63;;;1.30;;
65418;SDS011;52027;50.658;14.004;2022-08-07T00:18:37;2.38;;;1.33;;
65418;SDS011;52027;50.658;14.004;2022-08-07T00:21:04;2.70;;;1.30;;
65418;SDS011;52027;50.658;14.004;2022-08-07T00:23:33;2.22;;;1.20;;
65418;SDS011;52027;50.658;14.004;2022-08-07T00:26:00;2.55;;;1.27;;
65418;SDS011;52027;50.658;14.004;2022-08-07T00:28:27;2.38;;;1.30;;
65418;SDS011;52027;50.658;14.004;2022-08-07T00:30:53;1.90;;;1.30;;
65418;SDS011;52027;50.658;14.004;2022-08-07T00:33:18;2.72;;;1.30;;
65418;SDS011;52027;50.658;14.004;2022-08-07T00:35:44;1.92;;;1.10;;
65418;SDS011;52027;50.658;14.004;2022-08-07T00:38:10;3.25;;;1.30;;
65418;SDS011;52027;50.658;14.004;2022-08-07T00:40:35;2.30;;;1.20;;
65418;SDS011;52027;50.658;14.004;2022-08-07T00:43:01;2.70;;;1.20;;
65418;SDS011;52027;50.658;14.004;2022-08-07T00:45:27;2.63;;;1.30;;
65418;SDS011;52027;50.658;14.004;2022-08-07T00:47:52;2.75;;;1.23;;
65418;SDS011;52027;50.658;14.004;2022-08-07T00:50:18;3.05;;;1.20;;
65418;SDS011;52027;50.658;14.004;2022-08-07T00:52:43;2.72;;;1.10;;
65418;SDS011;52027;50.658;14.004;2022-08-07T00:55:09;2.42;;;1.20;;
65418;SDS011;52027;50.658;14.004;2022-08-07T00:57:34;2.75;;;1.20;;
65418;SDS011;52027;50.658;14.004;2022-08-07T01:00:00;2.72;;;1.15;;
65418;SDS011;52027;50.658;14.004;2022-08-07T01:02:29;2.03;;;1.10;;
65418;SDS011;52027;50.658;14.004;2022-08-07T01:04:55;2.60;;;1.25;;
65418;SDS011;52027;50.658;14.004;2022-08-07T01:07:21;2.67;;;1.10;;
65418;SDS011;52027;50.658;14.004;2022-08-07T01:09:47;1.92;;;1.10;;
65418;SDS011;52027;50.658;14.004;2022-08-07T01:12:15;2.22;;;1.20;;
65418;SDS011;52027;50.658;14.004;2022-08-07T01:14:41;2.17;;;1.20;;
65418;SDS011;52027;50.658;14.004;2022-08-07T01:17:07;2.67;;;1.10;;
65418;SDS011;52027;50.658;14.004;2022-08-07T01:19:33;2.28;;;1.13;;
65418;SDS011;52027;50.658;14.004;2022-08-07T01:21:59;1.70;;;1.10;;
65418;SDS011;52027;50.658;14.004;2022-08-07T01:24:25;2.08;;;1.20;;
65418;SDS011;52027;50.658;14.004;2022-08-07T01:26:53;2.30;;;1.20;;
65418;SDS011;52027;50.658;14.004;2022-08-07T01:29:19;3.17;;;1.10;;
65418;SDS011;52027;50.658;14.004;2022-08-07T01:31:46;2.58;;;1.10;;
65418;SDS011;52027;50.658;14.004;2022-08-07T01:34:12;1.92;;;1.10;;
65418;SDS011;52027;50.658;14.004;2022-08-07T01:36:38;1.70;;;1.10;;
65418;SDS011;52027;50.658;14.004;2022-08-07T01:39:03;2.22;;;1.05;;
65418;SDS011;52027;50.658;14.004;2022-08-07T01:41:29;2.88;;;1.10;;
65418;SDS011;52027;50.658;14.004;2022-08-07T01:43:55;2.85;;;1.20;;
65418;SDS011;52027;50.658;14.004;2022-08-07T01:46:20;2.20;;;1.20;;
65418;SDS011;52027;50.658;14.004;2022-08-07T01:48:46;2.28;;;1.35;;
65418;SDS011;52027;50.658;14.004;2022-08-07T01:51:19;2.67;;;1.50;;
65418;SDS011;52027;50.658;14.004;2022-08-07T01:53:54;2.65;;;1.40;;
65418;SDS011;52027;50.658;14.004;2022-08-07T01:59:06;2.58;;;1.30;;
65418;SDS011;52027;50.658;14.004;2022-08-07T02:01:39;2.40;;;1.20;;
65418;SDS011;52027;50.658;14.004;2022-08-07T02:04:10;2.13;;;1.27;;
65418;SDS011;52027;50.658;14.004;2022-08-07T02:06:41;2.03;;;1.20;;
65418;SDS011;52027;50.658;14.004;2022-08-07T06:11:49;3.03;;;1.40;;
65418;SDS011;52027;50.658;14.004;2022-08-07T06:14:15;3.03;;;1.52;;
65418;SDS011;52027;50.658;14.004;2022-08-07T06:16:41;3.85;;;1.30;;
65418;SDS011;52027;50.658;14.004;2022-08-07T06:22:15;3.67;;;1.40;;
65418;SDS011;52027;50.658;14.004;2022-08-07T06:39:58;2.95;;;1.40;;
65418;SDS011;52027;50.658;14.004;2022-08-07T06:45:45;3.03;;;1.30;;
65418;SDS011;52027;50.658;14.004;2022-08-07T06:51:15;3.42;;;1.52;;
65418;SDS011;52027;50.658;14.004;2022-08-07T06:53:44;2.50;;;1.40;;
65418;SDS011;52027;50.658;14.004;2022-08-07T06:56:10;2.38;;;1.35;;
65418;SDS011;52027;50.658;14.004;2022-08-07T06:58:37;3.30;;;1.50;;
65418;SDS011;52027;50.658;14.004;2022-08-07T07:01:07;3.00;;;1.30;;
65418;SDS011;52027;50.658;14.004;2022-08-07T07:09:49;2.28;;;1.30;;
65418;SDS011;52027;50.658;14.004;2022-08-07T07:15:32;3.13;;;1.60;;
65418;SDS011;52027;50.658;14.004;2022-08-07T07:22:09;2.40;;;1.30;;
65418;SDS011;52027;50.658;14.004;2022-08-07T07:24:36;2.65;;;1.33;;
65418;SDS011;52027;50.658;14.004;2022-08-07T07:27:03;3.03;;;1.42;;
65418;SDS011;52027;50.658;14.004;2022-08-07T07:29:46;2.45;;;1.30;;
65418;SDS011;52027;50.658;14.004;2022-08-07T07:32:15;3.70;;;1.40;;
65418;SDS011;52027;50.658;14.004;2022-08-07T07:34:44;3.55;;;1.30;;
65418;SDS011;52027;50.658;14.004;2022-08-07T07:37:11;2.42;;;1.27;;
65418;SDS011;52027;50.658;14.004;2022-08-07T07:39:38;2.53;;;1.20;;
65418;SDS011;52027;50.658;14.004;2022-08-07T07:42:05;3.35;;;1.23;;
65418;SDS011;52027;50.658;14.004;2022-08-07T07:44:32;2.63;;;1.30;;
65418;SDS011;52027;50.658;14.004;2022-08-07T07:46:59;2.38;;;1.20;;
65418;SDS011;52027;50.658;14.004;2022-08-07T07:49:27;3.47;;;1.30;;
65418;SDS011;52027;50.658;14.004;2022-08-07T07:51:55;3.05;;;1.27;;
65418;SDS011;52027;50.658;14.004;2022-08-07T07:54:22;2.40;;;1.17;;
65418;SDS011;52027;50.658;14.004;2022-08-07T07:56:48;2.17;;;1.20;;
65418;SDS011;52027;50.658;14.004;2022-08-07T07:59:16;6.05;;;1.80;;
65418;SDS011;52027;50.658;14.004;2022-08-07T08:01:44;4.30;;;1.77;;
65418;SDS011;52027;50.658;14.004;2022-08-07T08:04:10;5.00;;;1.67;;
65418;SDS011;52027;50.658;14.004;2022-08-07T08:06:41;5.00;;;1.70;;
65418;SDS011;52027;50.658;14.004;2022-08-07T08:09:08;3.72;;;1.60;;
65418;SDS011;52027;50.658;14.004;2022-08-07T08:11:34;3.65;;;1.60;;
65418;SDS011;52027;50.658;14.004;2022-08-07T08:14:00;3.40;;;1.50;;
65418;SDS011;52027;50.658;14.004;2022-08-07T08:16:47;5.65;;;1.50;;
65418;SDS011;52027;50.658;14.004;2022-08-07T08:19:13;1.98;;;1.15;;
65418;SDS011;52027;50.658;14.004;2022-08-07T08:21:41;3.75;;;1.23;;
65418;SDS011;52027;50.658;14.004;2022-08-07T08:24:30;5.05;;;1.20;;
65418;SDS011;52027;50.658;14.004;2022-08-07T08:27:17;2.50;;;1.13;;
65418;SDS011;52027;50.658;14.004;2022-08-07T08:29:48;1.75;;;1.05;;
65418;SDS011;52027;50.658;14.004;2022-08-07T08:32:17;1.63;;;0.98;;
65418;SDS011;52027;50.658;14.004;2022-08-07T08:34:44;1.75;;;1.00;;
65418;SDS011;52027;50.658;14.004;2022-08-07T08:37:11;2.05;;;1.00;;
65418;SDS011;52027;50.658;14.004;2022-08-07T08:39:38;2.08;;;0.93;;
65418;SDS011;52027;50.658;14.004;2022-08-07T08:42:09;1.55;;;1.00;;
65418;SDS011;52027;50.658;14.004;2022-08-07T08:47:35;1.73;;;0.90;;
65418;SDS011;52027;50.658;14.004;2022-08-07T08:50:18;2.25;;;0.90;;
65418;SDS011;52027;50.658;14.004;2022-08-07T08:55:36;1.35;;;1.00;;
65418;SDS011;52027;50.658;14.004;2022-08-07T08:58:09;3.40;;;0.93;;
65418;SDS011;52027;50.658;14.004;2022-08-07T09:00:41;1.45;;;0.90;;
65418;SDS011;52027;50.658;14.004;2022-08-07T09:03:31;1.42;;;0.90;;
65418;SDS011;52027;50.658;14.004;2022-08-07T09:05:59;1.48;;;0.90;;
65418;SDS011;52027;50.658;14.004;2022-08-07T09:11:29;1.95;;;0.82;;
65418;SDS011;52027;50.658;14.004;2022-08-07T09:17:10;3.42;;;0.90;;
65418;SDS011;52027;50.658;14.004;2022-08-07T09:19:44;1.33;;;0.88;;
65418;SDS011;52027;50.658;14.004;2022-08-07T09:22:20;1.92;;;0.85;;
65418;SDS011;52027;50.658;14.004;2022-08-07T09:28:18;2.58;;;1.00;;
65418;SDS011;52027;50.658;14.004;2022-08-07T09:31:09;1.52;;;0.90;;
65418;SDS011;52027;50.658;14.004;2022-08-07T09:34:00;3.45;;;0.90;;
65418;SDS011;52027;50.658;14.004;2022-08-07T09:37:03;1.92;;;0.90;;
65418;SDS011;52027;50.658;14.004;2022-08-07T09:39:43;1.98;;;0.90;;
65418;SDS011;52027;50.658;14.004;2022-08-07T09:45:23;1.73;;;0.77;;
65418;SDS011;52027;50.658;14.004;2022-08-07T09:48:00;1.25;;;0.80;;
65418;SDS011;52027;50.658;14.004;2022-08-07T09:53:31;2.90;;;1.00;;
65418;SDS011;52027;50.658;14.004;2022-08-07T10:13:10;2.15;;;1.00;;
65418;SDS011;52027;50.658;14.004;2022-08-07T10:18:49;1.73;;;0.90;;
65418;SDS011;52027;50.658;14.004;2022-08-07T10:27:15;1.90;;;0.98;;
65418;SDS011;52027;50.658;14.004;2022-08-07T10:30:06;1.98;;;1.00;;
65418;SDS011;52027;50.658;14.004;2022-08-07T10:35:26;2.00;;;1.00;;
65418;SDS011;52027;50.658;14.004;2022-08-07T10:43:43;2.70;;;1.05;;
65418;SDS011;52027;50.658;14.004;2022-08-07T10:46:18;1.42;;;0.90;;
65418;SDS011;52027;50.658;14.004;2022-08-07T10:49:01;1.20;;;0.90;;
65418;SDS011;52027;50.658;14.004;2022-08-07T10:57:09;1.45;;;0.90;;
65418;SDS011;52027;50.658;14.004;2022-08-07T11:07:33;0.95;;;0.80;;
65418;SDS011;52027;50.658;14.004;2022-08-07T11:10:02;1.42;;;0.88;;
65418;SDS011;52027;50.658;14.004;2022-08-07T11:12:35;1.58;;;0.80;;
65418;SDS011;52027;50.658;14.004;2022-08-07T11:15:07;1.83;;;0.90;;
65418;SDS011;52027;50.658;14.004;2022-08-07T11:20:21;2.58;;;0.90;;
65418;SDS011;52027;50.658;14.004;2022-08-07T11:25:43;1.42;;;0.90;;
65418;SDS011;52027;50.658;14.004;2022-08-07T11:41:59;2.30;;;0.90;;
65418;SDS011;52027;50.658;14.004;2022-08-07T11:50:02;2.00;;;1.17;;
65418;SDS011;52027;50.658;14.004;2022-08-07T11:52:54;2.65;;;0.90;;
65418;SDS011;52027;50.658;14.004;2022-08-07T12:06:57;1.20;;;0.80;;
65418;SDS011;52027;50.658;14.004;2022-08-07T12:09:33;1.73;;;0.90;;
65418;SDS011;52027;50.658;14.004;2022-08-07T12:12:04;2.03;;;0.90;;
65418;SDS011;52027;50.658;14.004;2022-08-07T12:14:36;2.00;;;0.95;;
65418;SDS011;52027;50.658;14.004;2022-08-07T12:17:11;2.08;;;0.90;;
65418;SDS011;52027;50.658;14.004;2022-08-07T12:19:44;1.63;;;0.90;;
65418;SDS011;52027;50.658;14.004;2022-08-07T12:28:48;2.15;;;0.88;;
65418;SDS011;52027;50.658;14.004;2022-08-07T12:31:21;1.90;;;0.90;;
65418;SDS011;52027;50.658;14.004;2022-08-07T12:36:20;0.90;;;0.70;;
65418;SDS011;52027;50.658;14.004;2022-08-07T12:38:47;1.10;;;0.75;;
65418;SDS011;52027;50.658;14.004;2022-08-07T12:41:13;2.40;;;1.25;;
65418;SDS011;52027;50.658;14.004;2022-08-07T12:43:40;1.50;;;0.90;;
65418;SDS011;52027;50.658;14.004;2022-08-07T12:51:53;1.35;;;0.80;;
65418;SDS011;52027;50.658;14.004;2022-08-07T12:57:16;2.03;;;0.85;;
65418;SDS011;52027;50.658;14.004;2022-08-07T12:59:48;1.63;;;0.90;;
65418;SDS011;52027;50.658;14.004;2022-08-07T13:13:33;1.95;;;0.80;;
65418;SDS011;52027;50.658;14.004;2022-08-07T13:19:01;1.10;;;0.90;;
65418;SDS011;52027;50.658;14.004;2022-08-07T13:21:53;1.27;;;0.80;;
65418;SDS011;52027;50.658;14.004;2022-08-07T13:24:32;1.30;;;1.00;;
65418;SDS011;52027;50.658;14.004;2022-08-07T13:27:15;1.67;;;0.98;;
65418;SDS011;52027;50.658;14.004;2022-08-07T13:29:54;1.10;;;0.80;;
65418;SDS011;52027;50.658;14.004;2022-08-07T13:32:25;1.48;;;0.95;;
65418;SDS011;52027;50.658;14.004;2022-08-07T13:37:37;3.72;;;0.90;;
65418;SDS011;52027;50.658;14.004;2022-08-07T13:42:37;1.65;;;0.80;;
65418;SDS011;52027;50.658;14.004;2022-08-07T13:45:04;1.17;;;0.80;;
65418;SDS011;52027;50.658;14.004;2022-08-07T13:47:33;2.38;;;0.90;;
65418;SDS011;52027;50.658;14.004;2022-08-07T13:50:00;2.15;;;0.90;;
65418;SDS011;52027;50.658;14.004;2022-08-07T13:52:28;1.80;;;0.90;;
65418;SDS011;52027;50.658;14.004;2022-08-07T13:54:55;1.63;;;0.90;;
65418;SDS011;52027;50.658;14.004;2022-08-07T13:57:25;2.80;;;0.95;;
65418;SDS011;52027;50.658;14.004;2022-08-07T13:59:53;1.58;;;0.88;;
65418;SDS011;52027;50.658;14.004;2022-08-07T14:02:22;1.48;;;0.80;;
65418;SDS011;52027;50.658;14.004;2022-08-07T14:04:51;1.17;;;0.80;;
65418;SDS011;52027;50.658;14.004;2022-08-07T14:07:20;3.30;;;0.98;;
65418;SDS011;52027;50.658;14.004;2022-08-07T14:09:57;1.35;;;0.80;;
65418;SDS011;52027;50.658;14.004;2022-08-07T14:12:25;2.65;;;0.80;;
65418;SDS011;52027;50.658;14.004;2022-08-07T14:15:00;1.58;;;0.80;;
65418;SDS011;52027;50.658;14.004;2022-08-07T14:17:33;1.73;;;0.90;;
65418;SDS011;52027;50.658;14.004;2022-08-07T14:22:39;1.92;;;1.00;;
65418;SDS011;52027;50.658;14.004;2022-08-07T14:25:08;2.05;;;0.90;;
65418;SDS011;52027;50.658;14.004;2022-08-07T14:27:38;1.90;;;0.90;;
65418;SDS011;52027;50.658;14.004;2022-08-07T14:30:07;1.35;;;0.85;;
65418;SDS011;52027;50.658;14.004;2022-08-07T14:32:43;1.80;;;1.00;;
65418;SDS011;52027;50.658;14.004;2022-08-07T14:37:42;1.52;;;1.00;;
65418;SDS011;52027;50.658;14.004;2022-08-07T14:40:14;1.50;;;1.10;;
65418;SDS011;52027;50.658;14.004;2022-08-07T14:42:41;1.77;;;1.10;;
65418;SDS011;52027;50.658;14.004;2022-08-07T14:45:09;2.45;;;1.10;;
65418;SDS011;52027;50.658;14.004;2022-08-07T14:47:36;1.40;;;1.00;;
65418;SDS011;52027;50.658;14.004;2022-08-07T14:50:05;1.50;;;0.90;;
65418;SDS011;52027;50.658;14.004;2022-08-07T14:52:32;1.67;;;1.00;;
65418;SDS011;52027;50.658;14.004;2022-08-07T14:55:02;1.45;;;1.00;;
65418;SDS011;52027;50.658;14.004;2022-08-07T14:57:29;1.80;;;1.08;;
65418;SDS011;52027;50.658;14.004;2022-08-07T14:59:56;1.25;;;1.00;;
65418;SDS011;52027;50.658;14.004;2022-08-07T15:02:23;2.20;;;0.90;;
65418;SDS011;52027;50.658;14.004;2022-08-07T15:04:51;1.40;;;0.90;;
65418;SDS011;52027;50.658;14.004;2022-08-07T15:07:18;1.73;;;0.90;;
65418;SDS011;52027;50.658;14.004;2022-08-07T15:09:46;1.20;;;0.90;;
65418;SDS011;52027;50.658;14.004;2022-08-07T15:12:23;1.05;;;0.95;;
65418;SDS011;52027;50.658;14.004;2022-08-07T15:14:53;1.38;;;0.93;;
65418;SDS011;52027;50.658;14.004;2022-08-07T15:17:23;1.10;;;0.82;;
65418;SDS011;52027;50.658;14.004;2022-08-07T15:19:56;2.45;;;0.90;;
65418;SDS011;52027;50.658;14.004;2022-08-07T15:22:26;1.50;;;1.00;;
65418;SDS011;52027;50.658;14.004;2022-08-07T15:24:55;3.05;;;1.00;;
65418;SDS011;52027;50.658;14.004;2022-08-07T15:27:22;1.63;;;0.80;;
65418;SDS011;52027;50.658;14.004;2022-08-07T15:29:51;2.00;;;0.90;;
65418;SDS011;52027;50.658;14.004;2022-08-07T15:32:21;1.38;;;0.80;;
65418;SDS011;52027;50.658;14.004;2022-08-07T15:34:51;1.48;;;0.80;;
65418;SDS011;52027;50.658;14.004;2022-08-07T15:37:28;2.15;;;0.90;;
65418;SDS011;52027;50.658;14.004;2022-08-07T15:39:59;1.70;;;0.90;;
65418;SDS011;52027;50.658;14.004;2022-08-07T15:45:10;4.90;;;1.08;;
65418;SDS011;52027;50.658;14.004;2022-08-07T15:47:38;2.25;;;0.90;;
65418;SDS011;52027;50.658;14.004;2022-08-07T15:50:09;3.65;;;1.15;;
65418;SDS011;52027;50.658;14.004;2022-08-07T15:52:40;4.97;;;1.08;;
65418;SDS011;52027;50.658;14.004;2022-08-07T15:55:08;1.50;;;1.00;;
65418;SDS011;52027;50.658;14.004;2022-08-07T15:57:36;2.78;;;1.10;;
65418;SDS011;52027;50.658;14.004;2022-08-07T16:00:03;3.25;;;1.20;;
65418;SDS011;52027;50.658;14.004;2022-08-07T16:02:39;2.65;;;1.27;;
65418;SDS011;52027;50.658;14.004;2022-08-07T16:05:08;2.70;;;1.30;;
65418;SDS011;52027;50.658;14.004;2022-08-07T16:07:44;2.30;;;1.25;;
65418;SDS011;52027;50.658;14.004;2022-08-07T16:10:17;4.43;;;1.50;;
65418;SDS011;52027;50.658;14.004;2022-08-07T16:15:48;3.88;;;1.42;;
65418;SDS011;52027;50.658;14.004;2022-08-07T16:32:27;3.83;;;1.20;;
65418;SDS011;52027;50.658;14.004;2022-08-07T16:40:33;2.00;;;1.20;;
65418;SDS011;52027;50.658;14.004;2022-08-07T16:49:00;1.88;;;1.20;;
65418;SDS011;52027;50.658;14.004;2022-08-07T16:54:31;2.58;;;1.30;;
65418;SDS011;52027;50.658;14.004;2022-08-07T17:08:32;1.80;;;1.33;;
65418;SDS011;52027;50.658;14.004;2022-08-07T17:11:07;2.78;;;1.20;;
65418;SDS011;52027;50.658;14.004;2022-08-07T17:16:13;1.80;;;1.30;;
65418;SDS011;52027;50.658;14.004;2022-08-07T17:18:45;1.80;;;1.20;;
65418;SDS011;52027;50.658;14.004;2022-08-07T17:24:02;1.63;;;1.20;;
65418;SDS011;52027;50.658;14.004;2022-08-07T17:26:45;1.35;;;1.05;;
65418;SDS011;52027;50.658;14.004;2022-08-07T17:29:35;1.75;;;1.20;;
65418;SDS011;52027;50.658;14.004;2022-08-07T17:35:06;1.75;;;1.20;;
65418;SDS011;52027;50.658;14.004;2022-08-07T17:37:45;1.55;;;1.17;;
65418;SDS011;52027;50.658;14.004;2022-08-07T17:40:20;2.00;;;1.30;;
65418;SDS011;52027;50.658;14.004;2022-08-07T17:46:18;1.65;;;1.10;;
65418;SDS011;52027;50.658;14.004;2022-08-07T17:57:29;1.92;;;1.20;;
65418;SDS011;52027;50.658;14.004;2022-08-07T18:00:05;2.13;;;1.30;;
65418;SDS011;52027;50.658;14.004;2022-08-07T18:11:05;2.05;;;1.30;;
65418;SDS011;52027;50.658;14.004;2022-08-07T18:13:39;2.03;;;1.27;;
65418;SDS011;52027;50.658;14.004;2022-08-07T18:24:46;2.40;;;1.20;;
65418;SDS011;52027;50.658;14.004;2022-08-07T18:27:21;1.70;;;1.20;;
65418;SDS011;52027;50.658;14.004;2022-08-07T18:30:05;2.00;;;1.20;;
65418;SDS011;52027;50.658;14.004;2022-08-07T18:38:21;2.05;;;1.30;;
65418;SDS011;52027;50.658;14.004;2022-08-07T18:46:21;1.80;;;1.20;;
65418;SDS011;52027;50.658;14.004;2022-08-07T18:49:28;2.08;;;1.30;;
65418;SDS011;52027;50.658;14.004;2022-08-07T18:52:24;1.93;;;1.20;;
65418;SDS011;52027;50.658;14.004;2022-08-07T19:00:21;2.20;;;1.25;;
65418;SDS011;52027;50.658;14.004;2022-08-07T19:05:58;1.85;;;1.20;;
65418;SDS011;52027;50.658;14.004;2022-08-07T19:08:32;2.08;;;1.20;;
65418;SDS011;52027;50.658;14.004;2022-08-07T19:11:27;1.88;;;1.30;;
65418;SDS011;52027;50.658;14.004;2022-08-07T19:14:11;2.03;;;1.23;;
65418;SDS011;52027;50.658;14.004;2022-08-07T19:16:45;1.83;;;1.20;;
65418;SDS011;52027;50.658;14.004;2022-08-07T19:22:21;1.58;;;1.20;;
65418;SDS011;52027;50.658;14.004;2022-08-07T19:24:52;2.53;;;1.20;;
65418;SDS011;52027;50.658;14.004;2022-08-07T19:27:19;1.90;;;1.30;;
65418;SDS011;52027;50.658;14.004;2022-08-07T19:29:51;3.03;;;1.40;;
65418;SDS011;52027;50.658;14.004;2022-08-07T19:32:20;2.00;;;1.20;;
65418;SDS011;52027;50.658;14.004;2022-08-07T19:34:51;1.52;;;1.20;;
65418;SDS011;52027;50.658;14.004;2022-08-07T19:37:21;1.98;;;1.20;;
65418;SDS011;52027;50.658;14.004;2022-08-07T19:39:57;1.50;;;1.10;;
65418;SDS011;52027;50.658;14.004;2022-08-07T19:42:25;1.88;;;1.20;;
65418;SDS011;52027;50.658;14.004;2022-08-07T19:44:52;1.73;;;1.20;;
65418;SDS011;52027;50.658;14.004;2022-08-07T19:47:21;2.08;;;1.30;;
65418;SDS011;52027;50.658;14.004;2022-08-07T19:49:52;2.15;;;1.20;;
65418;SDS011;52027;50.658;14.004;2022-08-07T19:52:19;1.50;;;1.10;;
65418;SDS011;52027;50.658;14.004;2022-08-07T19:54:48;3.33;;;1.33;;
65418;SDS011;52027;50.658;14.004;2022-08-07T19:57:18;1.77;;;1.20;;
65418;SDS011;52027;50.658;14.004;2022-08-07T19:59:50;1.90;;;1.20;;
65418;SDS011;52027;50.658;14.004;2022-08-07T20:02:23;1.90;;;1.30;;
65418;SDS011;52027;50.658;14.004;2022-08-07T20:04:51;2.45;;;1.30;;
65418;SDS011;52027;50.658;14.004;2022-08-07T20:07:22;2.10;;;1.20;;
65418;SDS011;52027;50.658;14.004;2022-08-07T20:09:51;2.08;;;1.30;;
65418;SDS011;52027;50.658;14.004;2022-08-07T20:12:20;1.70;;;1.20;;
65418;SDS011;52027;50.658;14.004;2022-08-07T20:14:48;2.67;;;1.20;;
65418;SDS011;52027;50.658;14.004;2022-08-07T20:17:15;2.00;;;1.30;;
65418;SDS011;52027;50.658;14.004;2022-08-07T20:19:43;3.80;;;1.40;;
65418;SDS011;52027;50.658;14.004;2022-08-07T20:22:10;2.50;;;1.30;;
65418;SDS011;52027;50.658;14.004;2022-08-07T20:24:37;1.77;;;1.15;;
65418;SDS011;52027;50.658;14.004;2022-08-07T20:27:09;2.72;;;1.30;;
65418;SDS011;52027;50.658;14.004;2022-08-07T20:29:40;1.90;;;1.23;;
65418;SDS011;52027;50.658;14.004;2022-08-07T20:32:11;2.83;;;1.30;;
65418;SDS011;52027;50.658;14.004;2022-08-07T20:34:42;2.78;;;1.30;;
65418;SDS011;52027;50.658;14.004;2022-08-07T20:37:10;2.90;;;1.30;;
65418;SDS011;52027;50.658;14.004;2022-08-07T20:39:37;2.35;;;1.30;;
65418;SDS011;52027;50.658;14.004;2022-08-07T20:42:06;1.95;;;1.20;;
65418;SDS011;52027;50.658;14.004;2022-08-07T20:44:35;1.95;;;1.20;;
65418;SDS011;52027;50.658;14.004;2022-08-07T20:47:04;2.10;;;1.25;;
65418;SDS011;52027;50.658;14.004;2022-08-07T20:49:40;2.85;;;1.10;;
65418;SDS011;52027;50.658;14.004;2022-08-07T20:52:14;2.35;;;1.33;;
65418;SDS011;52027;50.658;14.004;2022-08-07T20:54:41;1.90;;;1.20;;
65418;SDS011;52027;50.658;14.004;2022-08-07T20:57:06;2.25;;;1.20;;
65418;SDS011;52027;50.658;14.004;2022-08-07T20:59:34;2.47;;;1.30;;
65418;SDS011;52027;50.658;14.004;2022-08-07T21:02:01;2.25;;;1.20;;
65418;SDS011;52027;50.658;14.004;2022-08-07T21:04:34;1.85;;;1.15;;
65418;SDS011;52027;50.658;14.004;2022-08-07T21:07:00;2.30;;;1.23;;
65418;SDS011;52027;50.658;14.004;2022-08-07T21:09:30;2.30;;;1.20;;
65418;SDS011;52027;50.658;14.004;2022-08-07T21:12:02;3.47;;;1.30;;
65418;SDS011;52027;50.658;14.004;2022-08-07T21:14:34;2.60;;;1.38;;
65418;SDS011;52027;50.658;14.004;2022-08-07T21:17:05;2.38;;;1.30;;
65418;SDS011;52027;50.658;14.004;2022-08-07T21:19:33;2.85;;;1.50;;
65418;SDS011;52027;50.658;14.004;2022-08-07T21:22:02;2.97;;;1.45;;
65418;SDS011;52027;50.658;14.004;2022-08-07T21:27:26;3.25;;;1.70;;
65418;SDS011;52027;50.658;14.004;2022-08-07T21:32:42;4.25;;;1.33;;
65418;SDS011;52027;50.658;14.004;2022-08-07T21:38:01;2.15;;;1.20;;
65418;SDS011;52027;50.658;14.004;2022-08-07T21:40:40;4.45;;;1.48;;
65418;SDS011;52027;50.658;14.004;2022-08-07T21:51:37;2.90;;;1.40;;
65418;SDS011;52027;50.658;14.004;2022-08-07T22:00:02;3.30;;;1.55;;
65418;SDS011;52027;50.658;14.004;2022-08-07T22:05:43;2.55;;;1.40;;
65418;SDS011;52027;50.658;14.004;2022-08-07T22:08:19;3.35;;;1.30;;
65418;SDS011;52027;50.658;14.004;2022-08-07T22:10:54;2.72;;;1.30;;
65418;SDS011;52027;50.658;14.004;2022-08-07T22:13:23;4.68;;;1.50;;
65418;SDS011;52027;50.658;14.004;2022-08-07T22:15:57;3.28;;;1.30;;
65418;SDS011;52027;50.658;14.004;2022-08-07T22:18:36;3.08;;;1.42;;
65418;SDS011;52027;50.658;14.004;2022-08-07T22:21:10;2.33;;;1.40;;
65418;SDS011;52027;50.658;14.004;2022-08-07T22:28:54;2.60;;;1.40;;
65418;SDS011;52027;50.658;14.004;2022-08-07T22:34:08;3.63;;;1.42;;
65418;SDS011;52027;50.658;14.004;2022-08-07T22:39:32;3.75;;;1.30;;
65418;SDS011;52027;50.658;14.004;2022-08-07T22:42:09;2.55;;;1.38;;
65418;SDS011;52027;50.658;14.004;2022-08-07T22:44:39;3.22;;;1.33;;
65418;SDS011;52027;50.658;14.004;2022-08-07T22:57:57;4.85;;;1.90;;
65418;SDS011;52027;50.658;14.004;2022-08-07T23:06:35;3.38;;;1.50;;
65418;SDS011;52027;50.658;14.004;2022-08-07T23:09:37;3.10;;;1.48;;
65418;SDS011;52027;50.658;14.004;2022-08-07T23:12:23;2.67;;;1.40;;
65418;SDS011;52027;50.658;14.004;2022-08-07T23:15:40;2.33;;;1.60;;
65418;SDS011;52027;50.658;14.004;2022-08-07T23:18:25;2.85;;;1.50;;
65418;SDS011;52027;50.658;14.004;2022-08-07T23:21:10;3.47;;;1.48;;
65418;SDS011;52027;50.658;14.004;2022-08-07T23:26:55;4.85;;;2.10;;
65418;SDS011;52027;50.658;14.004;2022-08-07T23:32:43;3.13;;;1.70;;
65418;SDS011;52027;50.658;14.004;2022-08-07T23:35:22;4.30;;;1.73;;
65418;SDS011;52027;50.658;14.004;2022-08-07T23:38:23;2.60;;;1.60;;
65418;SDS011;52027;50.658;14.004;2022-08-07T23:41:14;3.38;;;1.63;;
65418;SDS011;52027;50.658;14.004;2022-08-07T23:53:02;3.05;;;1.40;;
65418;SDS011;52027;50.658;14.004;2022-08-07T23:55:55;3.80;;;1.70;;
65418;SDS011;52027;50.658;14.004;2022-08-07T23:59:03;3.40;;;1.60;;
